<?xml version="1.0" encoding="UTF-8" standalone="no" ?>
<gpx xmlns="http://www.topografix.com/GPX/1/1" xmlns:xsi="http://www.w3.org/2001/XMLSchema-instance" xsi:schemaLocation="http://www.topografix.com/GPX/1/1 http://www.topografix.com/GPX/1/1/gpx.xsd" version="1.1" creator="VisuGPX - https://www.visugpx.com">
  <metadata>
    <name>Vallet_ChateauNoeCoteaux_</name>
    <desc><![CDATA[idor: 5410043_5409798_6463907_7386552 gnerando]]></desc>
  </metadata>
  <trk>
    <name><![CDATA[Vallet_Coteaux_12.8km-5409798]]></name>
    <extensions>
      <line xmlns="http://www.topografix.com/GPX/gpx_style/0/2">
        <color>804000</color>
        <width>4</width>
      </line>
    </extensions>
    <trkseg>
      <trkpt lat="47.16687" lon="-1.26604">
        <ele>73</ele>
        <time>2023-11-14T05:48:56Z</time>
      </trkpt>
      <trkpt lat="47.16748" lon="-1.26566">
        <ele>74</ele>
        <time>2023-11-14T05:50:24Z</time>
      </trkpt>
      <trkpt lat="47.16599" lon="-1.26656">
        <ele>68</ele>
        <time>2023-11-14T05:53:59Z</time>
      </trkpt>
      <trkpt lat="47.16468" lon="-1.26746">
        <ele>63</ele>
        <time>2023-11-14T05:57:12Z</time>
      </trkpt>
      <trkpt lat="47.16311" lon="-1.26518">
        <ele>58</ele>
        <time>2023-11-14T06:02:07Z</time>
      </trkpt>
      <trkpt lat="47.16462" lon="-1.26368">
        <ele>60</ele>
        <time>2023-11-14T06:06:10Z</time>
      </trkpt>
      <trkpt lat="47.16398" lon="-1.26274">
        <ele>58</ele>
        <time>2023-11-14T06:08:11Z</time>
      </trkpt>
      <trkpt lat="47.1641" lon="-1.26209">
        <ele>57</ele>
        <time>2023-11-14T06:09:12Z</time>
      </trkpt>
      <trkpt lat="47.16249" lon="-1.26098">
        <ele>51</ele>
        <time>2023-11-14T06:13:09Z</time>
      </trkpt>
      <trkpt lat="47.16162" lon="-1.25995">
        <ele>46</ele>
        <time>2023-11-14T06:15:38Z</time>
      </trkpt>
      <trkpt lat="47.16045" lon="-1.25991">
        <ele>40</ele>
        <time>2023-11-14T06:18:14Z</time>
      </trkpt>
      <trkpt lat="47.16025" lon="-1.26068">
        <ele>41</ele>
        <time>2023-11-14T06:19:29Z</time>
      </trkpt>
      <trkpt lat="47.16025" lon="-1.263">
        <ele>46</ele>
        <time>2023-11-14T06:22:59Z</time>
      </trkpt>
      <trkpt lat="47.15841" lon="-1.26201">
        <ele>34</ele>
        <time>2023-11-14T06:27:21Z</time>
      </trkpt>
      <trkpt lat="47.15727" lon="-1.26167">
        <ele>32</ele>
        <time>2023-11-14T06:29:56Z</time>
      </trkpt>
      <trkpt lat="47.1547" lon="-1.2636">
        <ele>37</ele>
        <time>2023-11-14T06:36:21Z</time>
      </trkpt>
      <trkpt lat="47.15409" lon="-1.26523">
        <ele>37</ele>
        <time>2023-11-14T06:39:10Z</time>
      </trkpt>
      <trkpt lat="47.15286" lon="-1.26703">
        <ele>36</ele>
        <time>2023-11-14T06:43:02Z</time>
      </trkpt>
      <trkpt lat="47.15137" lon="-1.26707">
        <ele>37</ele>
        <time>2023-11-14T06:46:21Z</time>
      </trkpt>
      <trkpt lat="47.1503" lon="-1.26681">
        <ele>40</ele>
        <time>2023-11-14T06:48:45Z</time>
      </trkpt>
      <trkpt lat="47.14904" lon="-1.26712">
        <ele>36</ele>
        <time>2023-11-14T06:51:36Z</time>
      </trkpt>
      <trkpt lat="47.14773" lon="-1.26969">
        <ele>40</ele>
        <time>2023-11-14T06:56:27Z</time>
      </trkpt>
      <trkpt lat="47.14586" lon="-1.2684">
        <ele>52</ele>
        <time>2023-11-14T07:01:03Z</time>
      </trkpt>
      <trkpt lat="47.14449" lon="-1.26802">
        <ele>54</ele>
        <time>2023-11-14T07:04:09Z</time>
      </trkpt>
      <trkpt lat="47.14189" lon="-1.26823">
        <ele>47</ele>
        <time>2023-11-14T07:09:56Z</time>
      </trkpt>
      <trkpt lat="47.14145" lon="-1.26806">
        <ele>45</ele>
        <time>2023-11-14T07:10:57Z</time>
      </trkpt>
      <trkpt lat="47.14058" lon="-1.2675">
        <ele>45</ele>
        <time>2023-11-14T07:13:04Z</time>
      </trkpt>
      <trkpt lat="47.14022" lon="-1.26776">
        <ele>44</ele>
        <time>2023-11-14T07:13:57Z</time>
      </trkpt>
      <trkpt lat="47.13836" lon="-1.26634">
        <ele>40</ele>
        <time>2023-11-14T07:18:37Z</time>
      </trkpt>
      <trkpt lat="47.13836" lon="-1.26484">
        <ele>42</ele>
        <time>2023-11-14T07:20:53Z</time>
      </trkpt>
      <trkpt lat="47.13739" lon="-1.25806">
        <ele>51</ele>
        <time>2023-11-14T07:31:22Z</time>
      </trkpt>
      <trkpt lat="47.13868" lon="-1.25737">
        <ele>54</ele>
        <time>2023-11-14T07:34:25Z</time>
      </trkpt>
      <trkpt lat="47.13926" lon="-1.25755">
        <ele>55</ele>
        <time>2023-11-14T07:35:44Z</time>
      </trkpt>
      <trkpt lat="47.13906" lon="-1.25476">
        <ele>42</ele>
        <time>2023-11-14T07:39:59Z</time>
      </trkpt>
      <trkpt lat="47.13961" lon="-1.25338">
        <ele>42</ele>
        <time>2023-11-14T07:42:24Z</time>
      </trkpt>
      <trkpt lat="47.14025" lon="-1.25351">
        <ele>45</ele>
        <time>2023-11-14T07:43:50Z</time>
      </trkpt>
      <trkpt lat="47.14049" lon="-1.25171">
        <ele>52</ele>
        <time>2023-11-14T07:46:37Z</time>
      </trkpt>
      <trkpt lat="47.14087" lon="-1.24939">
        <ele>52</ele>
        <time>2023-11-14T07:50:14Z</time>
      </trkpt>
      <trkpt lat="47.14417" lon="-1.24952">
        <ele>66</ele>
        <time>2023-11-14T07:57:34Z</time>
      </trkpt>
      <trkpt lat="47.14449" lon="-1.24501">
        <ele>55</ele>
        <time>2023-11-14T08:04:26Z</time>
      </trkpt>
      <trkpt lat="47.14656" lon="-1.24377">
        <ele>65</ele>
        <time>2023-11-14T08:09:24Z</time>
      </trkpt>
      <trkpt lat="47.14563" lon="-1.24029">
        <ele>70</ele>
        <time>2023-11-14T08:15:03Z</time>
      </trkpt>
      <trkpt lat="47.1458" lon="-1.23776">
        <ele>69</ele>
        <time>2023-11-14T08:18:54Z</time>
      </trkpt>
      <trkpt lat="47.14717" lon="-1.23823">
        <ele>72</ele>
        <time>2023-11-14T08:22:02Z</time>
      </trkpt>
      <trkpt lat="47.14869" lon="-1.23673">
        <ele>77</ele>
        <time>2023-11-14T08:26:06Z</time>
      </trkpt>
      <trkpt lat="47.15193" lon="-1.23626">
        <ele>78</ele>
        <time>2023-11-14T08:33:21Z</time>
      </trkpt>
      <trkpt lat="47.15318" lon="-1.23652">
        <ele>75</ele>
        <time>2023-11-14T08:36:09Z</time>
      </trkpt>
      <trkpt lat="47.15482" lon="-1.23742">
        <ele>75</ele>
        <time>2023-11-14T08:40:03Z</time>
      </trkpt>
      <trkpt lat="47.15488" lon="-1.23969">
        <ele>76</ele>
        <time>2023-11-14T08:43:29Z</time>
      </trkpt>
      <trkpt lat="47.15435" lon="-1.24034">
        <ele>77</ele>
        <time>2023-11-14T08:45:01Z</time>
      </trkpt>
      <trkpt lat="47.1533" lon="-1.24025">
        <ele>75</ele>
        <time>2023-11-14T08:47:21Z</time>
      </trkpt>
      <trkpt lat="47.15321" lon="-1.2424">
        <ele>74</ele>
        <time>2023-11-14T08:50:37Z</time>
      </trkpt>
      <trkpt lat="47.15388" lon="-1.24265">
        <ele>78</ele>
        <time>2023-11-14T08:52:09Z</time>
      </trkpt>
      <trkpt lat="47.15368" lon="-1.24489">
        <ele>69</ele>
        <time>2023-11-14T08:55:34Z</time>
      </trkpt>
      <trkpt lat="47.15289" lon="-1.24737">
        <ele>61</ele>
        <time>2023-11-14T08:59:42Z</time>
      </trkpt>
      <trkpt lat="47.15289" lon="-1.24888">
        <ele>58</ele>
        <time>2023-11-14T09:02:00Z</time>
      </trkpt>
      <trkpt lat="47.15383" lon="-1.24909">
        <ele>57</ele>
        <time>2023-11-14T09:04:06Z</time>
      </trkpt>
      <trkpt lat="47.15432" lon="-1.24956">
        <ele>54</ele>
        <time>2023-11-14T09:05:24Z</time>
      </trkpt>
      <trkpt lat="47.15508" lon="-1.25016">
        <ele>50</ele>
        <time>2023-11-14T09:07:20Z</time>
      </trkpt>
      <trkpt lat="47.15511" lon="-1.25085">
        <ele>49</ele>
        <time>2023-11-14T09:08:22Z</time>
      </trkpt>
      <trkpt lat="47.15637" lon="-1.25128">
        <ele>47</ele>
        <time>2023-11-14T09:11:15Z</time>
      </trkpt>
      <trkpt lat="47.15607" lon="-1.25192">
        <ele>47</ele>
        <time>2023-11-14T09:12:25Z</time>
      </trkpt>
      <trkpt lat="47.15718" lon="-1.25287">
        <ele>46</ele>
        <time>2023-11-14T09:15:17Z</time>
      </trkpt>
      <trkpt lat="47.15978" lon="-1.25742">
        <ele>37</ele>
        <time>2023-11-14T09:24:16Z</time>
      </trkpt>
      <trkpt lat="47.15987" lon="-1.26021">
        <ele>38</ele>
        <time>2023-11-14T09:28:30Z</time>
      </trkpt>
      <trkpt lat="47.16048" lon="-1.26042">
        <ele>41</ele>
        <time>2023-11-14T09:29:53Z</time>
      </trkpt>
      <trkpt lat="47.16048" lon="-1.26227">
        <ele>46</ele>
        <time>2023-11-14T09:32:41Z</time>
      </trkpt>
      <trkpt lat="47.16182" lon="-1.26287">
        <ele>53</ele>
        <time>2023-11-14T09:35:48Z</time>
      </trkpt>
      <trkpt lat="47.16322" lon="-1.2578">
        <ele>61</ele>
        <time>2023-11-14T09:44:04Z</time>
      </trkpt>
      <trkpt lat="47.16389" lon="-1.2581">
        <ele>64</ele>
        <time>2023-11-14T09:45:38Z</time>
      </trkpt>
      <trkpt lat="47.1671" lon="-1.25866">
        <ele>72</ele>
        <time>2023-11-14T09:52:49Z</time>
      </trkpt>
      <trkpt lat="47.16842" lon="-1.25973">
        <ele>79</ele>
        <time>2023-11-14T09:56:10Z</time>
      </trkpt>
      <trkpt lat="47.16731" lon="-1.26514">
        <ele>72</ele>
        <time>2023-11-14T10:04:43Z</time>
      </trkpt>
    </trkseg>
  </trk>
</gpx>